sensor_id;sensor_type;location;lat;lon;timestamp;P1;durP1;ratioP1;P2;durP2;ratioP2
1380;SDS011;684;48.342;10.096;2023-12-20T00:00:20;5.50;;;2.80;;
1380;SDS011;684;48.342;10.096;2023-12-20T00:02:46;6.17;;;2.93;;
1380;SDS011;684;48.342;10.096;2023-12-20T00:05:13;5.10;;;2.67;;
1380;SDS011;684;48.342;10.096;2023-12-20T00:07:40;5.07;;;2.40;;
1380;SDS011;684;48.342;10.096;2023-12-20T00:10:07;5.83;;;2.90;;
1380;SDS011;684;48.342;10.096;2023-12-20T00:12:34;5.33;;;2.67;;
1380;SDS011;684;48.342;10.096;2023-12-20T00:15:02;8.37;;;2.90;;
1380;SDS011;684;48.342;10.096;2023-12-20T00:17:29;4.20;;;2.30;;
1380;SDS011;684;48.342;10.096;2023-12-20T00:19:56;5.90;;;3.00;;
1380;SDS011;684;48.342;10.096;2023-12-20T00:22:22;4.73;;;2.30;;
1380;SDS011;684;48.342;10.096;2023-12-20T00:24:49;4.60;;;2.00;;
1380;SDS011;684;48.342;10.096;2023-12-20T00:27:16;4.47;;;2.10;;
1380;SDS011;684;48.342;10.096;2023-12-20T00:29:42;6.70;;;2.80;;
1380;SDS011;684;48.342;10.096;2023-12-20T00:32:14;5.80;;;2.70;;
1380;SDS011;684;48.342;10.096;2023-12-20T00:34:40;8.43;;;3.27;;
1380;SDS011;684;48.342;10.096;2023-12-20T00:37:07;6.93;;;2.60;;
1380;SDS011;684;48.342;10.096;2023-12-20T00:39:34;5.50;;;2.60;;
1380;SDS011;684;48.342;10.096;2023-12-20T00:42:01;5.03;;;2.40;;
1380;SDS011;684;48.342;10.096;2023-12-20T00:44:28;5.40;;;2.77;;
1380;SDS011;684;48.342;10.096;2023-12-20T00:46:54;5.20;;;2.40;;
1380;SDS011;684;48.342;10.096;2023-12-20T00:49:22;5.80;;;2.83;;
1380;SDS011;684;48.342;10.096;2023-12-20T00:51:49;6.50;;;3.10;;
1380;SDS011;684;48.342;10.096;2023-12-20T00:54:17;5.30;;;2.30;;
1380;SDS011;684;48.342;10.096;2023-12-20T00:56:44;4.90;;;2.50;;
1380;SDS011;684;48.342;10.096;2023-12-20T00:59:11;5.30;;;2.83;;
1380;SDS011;684;48.342;10.096;2023-12-20T01:01:37;4.90;;;2.83;;
1380;SDS011;684;48.342;10.096;2023-12-20T01:04:04;5.77;;;2.93;;
1380;SDS011;684;48.342;10.096;2023-12-20T01:06:32;5.07;;;2.40;;
1380;SDS011;684;48.342;10.096;2023-12-20T01:08:59;5.67;;;3.30;;
1380;SDS011;684;48.342;10.096;2023-12-20T01:11:25;5.10;;;2.47;;
1380;SDS011;684;48.342;10.096;2023-12-20T01:13:52;6.47;;;2.63;;
1380;SDS011;684;48.342;10.096;2023-12-20T01:16:19;5.00;;;2.70;;
1380;SDS011;684;48.342;10.096;2023-12-20T01:18:46;6.00;;;2.80;;
1380;SDS011;684;48.342;10.096;2023-12-20T01:21:12;4.97;;;2.50;;
1380;SDS011;684;48.342;10.096;2023-12-20T01:23:40;5.70;;;2.60;;
1380;SDS011;684;48.342;10.096;2023-12-20T01:26:07;4.43;;;2.27;;
1380;SDS011;684;48.342;10.096;2023-12-20T01:28:34;5.00;;;2.33;;
1380;SDS011;684;48.342;10.096;2023-12-20T01:31:00;5.60;;;3.00;;
1380;SDS011;684;48.342;10.096;2023-12-20T01:33:27;6.13;;;2.60;;
1380;SDS011;684;48.342;10.096;2023-12-20T01:35:54;5.33;;;2.60;;
1380;SDS011;684;48.342;10.096;2023-12-20T01:38:20;5.40;;;2.80;;
1380;SDS011;684;48.342;10.096;2023-12-20T01:40:47;5.60;;;3.00;;
1380;SDS011;684;48.342;10.096;2023-12-20T01:43:14;5.30;;;2.30;;
1380;SDS011;684;48.342;10.096;2023-12-20T01:45:41;5.50;;;2.70;;
1380;SDS011;684;48.342;10.096;2023-12-20T01:48:08;4.60;;;2.50;;
1380;SDS011;684;48.342;10.096;2023-12-20T01:50:36;4.83;;;2.50;;
1380;SDS011;684;48.342;10.096;2023-12-20T01:53:03;5.20;;;2.77;;
1380;SDS011;684;48.342;10.096;2023-12-20T01:55:34;5.17;;;3.07;;
1380;SDS011;684;48.342;10.096;2023-12-20T01:58:05;5.50;;;2.73;;
1380;SDS011;684;48.342;10.096;2023-12-20T02:00:32;5.87;;;2.37;;
1380;SDS011;684;48.342;10.096;2023-12-20T02:03:00;5.20;;;2.60;;
1380;SDS011;684;48.342;10.096;2023-12-20T02:05:27;5.30;;;2.90;;
1380;SDS011;684;48.342;10.096;2023-12-20T02:07:55;6.20;;;2.73;;
1380;SDS011;684;48.342;10.096;2023-12-20T02:10:22;5.27;;;3.03;;
1380;SDS011;684;48.342;10.096;2023-12-20T02:12:50;5.70;;;2.90;;
1380;SDS011;684;48.342;10.096;2023-12-20T02:15:20;5.13;;;2.77;;
1380;SDS011;684;48.342;10.096;2023-12-20T02:17:47;5.70;;;3.10;;
1380;SDS011;684;48.342;10.096;2023-12-20T02:20:15;5.50;;;3.10;;
1380;SDS011;684;48.342;10.096;2023-12-20T02:22:43;5.17;;;2.70;;
1380;SDS011;684;48.342;10.096;2023-12-20T02:25:09;5.13;;;2.80;;
1380;SDS011;684;48.342;10.096;2023-12-20T02:27:36;7.20;;;2.90;;
1380;SDS011;684;48.342;10.096;2023-12-20T02:30:03;6.83;;;3.17;;
1380;SDS011;684;48.342;10.096;2023-12-20T02:32:31;5.67;;;3.13;;
1380;SDS011;684;48.342;10.096;2023-12-20T02:34:57;6.23;;;2.93;;
1380;SDS011;684;48.342;10.096;2023-12-20T02:37:24;6.17;;;3.20;;
1380;SDS011;684;48.342;10.096;2023-12-20T02:39:52;5.10;;;2.70;;
1380;SDS011;684;48.342;10.096;2023-12-20T02:42:19;8.20;;;2.83;;
1380;SDS011;684;48.342;10.096;2023-12-20T02:44:46;5.53;;;2.53;;
1380;SDS011;684;48.342;10.096;2023-12-20T02:47:12;4.60;;;2.50;;
1380;SDS011;684;48.342;10.096;2023-12-20T02:49:39;5.63;;;3.23;;
1380;SDS011;684;48.342;10.096;2023-12-20T02:52:06;6.00;;;3.20;;
1380;SDS011;684;48.342;10.096;2023-12-20T02:54:33;5.10;;;2.67;;
1380;SDS011;684;48.342;10.096;2023-12-20T02:57:01;6.37;;;3.57;;
1380;SDS011;684;48.342;10.096;2023-12-20T02:59:28;5.53;;;3.03;;
1380;SDS011;684;48.342;10.096;2023-12-20T03:01:54;5.30;;;2.87;;
1380;SDS011;684;48.342;10.096;2023-12-20T03:04:21;8.57;;;3.10;;
1380;SDS011;684;48.342;10.096;2023-12-20T03:06:48;5.57;;;2.90;;
1380;SDS011;684;48.342;10.096;2023-12-20T03:09:14;5.80;;;2.60;;
1380;SDS011;684;48.342;10.096;2023-12-20T03:11:41;9.73;;;3.47;;
1380;SDS011;684;48.342;10.096;2023-12-20T03:14:09;6.17;;;2.93;;
1380;SDS011;684;48.342;10.096;2023-12-20T03:16:36;5.60;;;3.20;;
1380;SDS011;684;48.342;10.096;2023-12-20T03:19:03;5.90;;;3.17;;
1380;SDS011;684;48.342;10.096;2023-12-20T03:21:29;5.97;;;3.37;;
1380;SDS011;684;48.342;10.096;2023-12-20T03:23:56;7.97;;;3.10;;
1380;SDS011;684;48.342;10.096;2023-12-20T03:26:23;5.40;;;3.10;;
1380;SDS011;684;48.342;10.096;2023-12-20T03:28:49;5.07;;;3.10;;
1380;SDS011;684;48.342;10.096;2023-12-20T03:31:18;8.43;;;3.40;;
1380;SDS011;684;48.342;10.096;2023-12-20T03:33:46;6.20;;;3.17;;
1380;SDS011;684;48.342;10.096;2023-12-20T03:36:12;6.60;;;3.10;;
1380;SDS011;684;48.342;10.096;2023-12-20T03:38:39;6.57;;;2.70;;
1380;SDS011;684;48.342;10.096;2023-12-20T03:41:06;6.80;;;3.60;;
1380;SDS011;684;48.342;10.096;2023-12-20T03:43:33;4.90;;;2.20;;
1380;SDS011;684;48.342;10.096;2023-12-20T03:46:00;5.83;;;3.33;;
1380;SDS011;684;48.342;10.096;2023-12-20T03:48:30;6.03;;;3.23;;
1380;SDS011;684;48.342;10.096;2023-12-20T03:50:56;5.53;;;3.13;;
1380;SDS011;684;48.342;10.096;2023-12-20T03:53:23;8.17;;;3.57;;
1380;SDS011;684;48.342;10.096;2023-12-20T03:55:50;6.40;;;2.80;;
1380;SDS011;684;48.342;10.096;2023-12-20T03:58:16;5.67;;;2.77;;
1380;SDS011;684;48.342;10.096;2023-12-20T04:00:43;5.97;;;2.80;;
1380;SDS011;684;48.342;10.096;2023-12-20T04:03:10;6.00;;;2.90;;
1380;SDS011;684;48.342;10.096;2023-12-20T04:05:39;5.80;;;2.67;;
1380;SDS011;684;48.342;10.096;2023-12-20T04:08:06;5.40;;;2.60;;
1380;SDS011;684;48.342;10.096;2023-12-20T04:10:33;5.10;;;2.63;;
1380;SDS011;684;48.342;10.096;2023-12-20T04:13:00;7.10;;;3.20;;
1380;SDS011;684;48.342;10.096;2023-12-20T04:15:27;5.30;;;2.40;;
1380;SDS011;684;48.342;10.096;2023-12-20T04:17:53;5.20;;;2.53;;
1380;SDS011;684;48.342;10.096;2023-12-20T04:20:20;6.03;;;2.73;;
1380;SDS011;684;48.342;10.096;2023-12-20T04:22:48;5.43;;;2.40;;
1380;SDS011;684;48.342;10.096;2023-12-20T04:25:15;4.53;;;2.30;;
1380;SDS011;684;48.342;10.096;2023-12-20T04:27:41;4.77;;;2.40;;
1380;SDS011;684;48.342;10.096;2023-12-20T04:30:09;5.67;;;2.90;;
1380;SDS011;684;48.342;10.096;2023-12-20T04:32:36;9.33;;;2.90;;
1380;SDS011;684;48.342;10.096;2023-12-20T04:35:03;5.70;;;3.27;;
1380;SDS011;684;48.342;10.096;2023-12-20T04:37:30;5.00;;;2.63;;
1380;SDS011;684;48.342;10.096;2023-12-20T04:39:58;4.73;;;2.37;;
1380;SDS011;684;48.342;10.096;2023-12-20T04:42:25;5.77;;;2.53;;
1380;SDS011;684;48.342;10.096;2023-12-20T04:44:51;4.63;;;2.20;;
1380;SDS011;684;48.342;10.096;2023-12-20T04:47:18;4.90;;;2.60;;
1380;SDS011;684;48.342;10.096;2023-12-20T04:49:45;6.17;;;2.93;;
1380;SDS011;684;48.342;10.096;2023-12-20T04:52:11;5.47;;;2.87;;
1380;SDS011;684;48.342;10.096;2023-12-20T04:54:38;5.43;;;2.50;;
1380;SDS011;684;48.342;10.096;2023-12-20T04:57:06;5.90;;;2.83;;
1380;SDS011;684;48.342;10.096;2023-12-20T04:59:33;6.37;;;3.07;;
1380;SDS011;684;48.342;10.096;2023-12-20T05:02:00;4.50;;;2.10;;
1380;SDS011;684;48.342;10.096;2023-12-20T05:04:26;5.60;;;2.93;;
1380;SDS011;684;48.342;10.096;2023-12-20T05:06:53;4.90;;;2.33;;
1380;SDS011;684;48.342;10.096;2023-12-20T05:09:20;4.73;;;2.70;;
1380;SDS011;684;48.342;10.096;2023-12-20T05:11:46;6.43;;;2.43;;
1380;SDS011;684;48.342;10.096;2023-12-20T05:14:15;5.33;;;2.53;;
1380;SDS011;684;48.342;10.096;2023-12-20T05:16:41;6.27;;;3.40;;
1380;SDS011;684;48.342;10.096;2023-12-20T05:19:08;6.03;;;2.50;;
1380;SDS011;684;48.342;10.096;2023-12-20T05:21:35;4.83;;;2.23;;
1380;SDS011;684;48.342;10.096;2023-12-20T05:24:02;5.07;;;2.50;;
1380;SDS011;684;48.342;10.096;2023-12-20T05:26:28;4.60;;;2.37;;
1380;SDS011;684;48.342;10.096;2023-12-20T05:28:55;4.23;;;1.93;;
1380;SDS011;684;48.342;10.096;2023-12-20T05:31:23;9.70;;;3.00;;
1380;SDS011;684;48.342;10.096;2023-12-20T05:33:50;5.23;;;2.30;;
1380;SDS011;684;48.342;10.096;2023-12-20T05:36:17;4.90;;;2.10;;
1380;SDS011;684;48.342;10.096;2023-12-20T05:38:44;5.10;;;2.10;;
1380;SDS011;684;48.342;10.096;2023-12-20T05:41:11;5.93;;;2.17;;
1380;SDS011;684;48.342;10.096;2023-12-20T05:43:38;5.33;;;3.30;;
1380;SDS011;684;48.342;10.096;2023-12-20T05:46:05;5.50;;;2.40;;
1380;SDS011;684;48.342;10.096;2023-12-20T05:48:33;5.20;;;2.90;;
1380;SDS011;684;48.342;10.096;2023-12-20T05:50:59;5.37;;;2.47;;
1380;SDS011;684;48.342;10.096;2023-12-20T05:53:26;5.70;;;2.87;;
1380;SDS011;684;48.342;10.096;2023-12-20T05:55:53;5.57;;;2.80;;
1380;SDS011;684;48.342;10.096;2023-12-20T05:58:20;5.40;;;2.83;;
1380;SDS011;684;48.342;10.096;2023-12-20T06:00:47;5.13;;;2.37;;
1380;SDS011;684;48.342;10.096;2023-12-20T06:03:14;4.97;;;2.63;;
1380;SDS011;684;48.342;10.096;2023-12-20T06:05:42;5.40;;;2.90;;
1380;SDS011;684;48.342;10.096;2023-12-20T06:08:08;8.80;;;3.67;;
1380;SDS011;684;48.342;10.096;2023-12-20T06:10:35;6.90;;;3.07;;
1380;SDS011;684;48.342;10.096;2023-12-20T06:13:02;5.30;;;3.17;;
1380;SDS011;684;48.342;10.096;2023-12-20T06:15:29;5.70;;;3.03;;
1380;SDS011;684;48.342;10.096;2023-12-20T06:17:56;5.77;;;3.00;;
1380;SDS011;684;48.342;10.096;2023-12-20T06:20:23;6.37;;;3.60;;
1380;SDS011;684;48.342;10.096;2023-12-20T06:22:51;6.60;;;3.53;;
1380;SDS011;684;48.342;10.096;2023-12-20T06:25:17;6.33;;;3.97;;
1380;SDS011;684;48.342;10.096;2023-12-20T06:27:44;6.40;;;4.10;;
1380;SDS011;684;48.342;10.096;2023-12-20T06:30:11;7.60;;;4.40;;
1380;SDS011;684;48.342;10.096;2023-12-20T06:32:38;8.60;;;4.70;;
1380;SDS011;684;48.342;10.096;2023-12-20T06:35:07;6.00;;;3.73;;
1380;SDS011;684;48.342;10.096;2023-12-20T06:37:34;8.30;;;4.23;;
1380;SDS011;684;48.342;10.096;2023-12-20T06:40:02;7.77;;;4.47;;
1380;SDS011;684;48.342;10.096;2023-12-20T06:42:30;8.00;;;4.40;;
1380;SDS011;684;48.342;10.096;2023-12-20T06:44:56;6.57;;;4.30;;
1380;SDS011;684;48.342;10.096;2023-12-20T06:47:23;7.80;;;5.07;;
1380;SDS011;684;48.342;10.096;2023-12-20T06:49:51;9.57;;;5.47;;
1380;SDS011;684;48.342;10.096;2023-12-20T06:52:18;7.47;;;5.63;;
1380;SDS011;684;48.342;10.096;2023-12-20T06:54:44;8.27;;;5.43;;
1380;SDS011;684;48.342;10.096;2023-12-20T06:57:12;9.57;;;4.90;;
1380;SDS011;684;48.342;10.096;2023-12-20T06:59:40;8.30;;;5.17;;
1380;SDS011;684;48.342;10.096;2023-12-20T07:02:07;8.13;;;5.30;;
1380;SDS011;684;48.342;10.096;2023-12-20T07:04:38;9.00;;;5.53;;
1380;SDS011;684;48.342;10.096;2023-12-20T07:07:05;8.00;;;5.20;;
1380;SDS011;684;48.342;10.096;2023-12-20T07:09:32;9.37;;;5.23;;
1380;SDS011;684;48.342;10.096;2023-12-20T07:11:59;8.90;;;5.10;;
1380;SDS011;684;48.342;10.096;2023-12-20T07:14:27;7.73;;;4.97;;
1380;SDS011;684;48.342;10.096;2023-12-20T07:16:54;7.47;;;5.23;;
1380;SDS011;684;48.342;10.096;2023-12-20T07:19:21;8.73;;;5.40;;
1380;SDS011;684;48.342;10.096;2023-12-20T07:21:47;9.00;;;5.40;;
1380;SDS011;684;48.342;10.096;2023-12-20T07:24:14;9.30;;;5.33;;
1380;SDS011;684;48.342;10.096;2023-12-20T07:26:41;8.10;;;5.17;;
1380;SDS011;684;48.342;10.096;2023-12-20T07:29:08;8.60;;;5.47;;
1380;SDS011;684;48.342;10.096;2023-12-20T07:31:36;8.60;;;5.30;;
1380;SDS011;684;48.342;10.096;2023-12-20T07:34:03;8.47;;;5.20;;
1380;SDS011;684;48.342;10.096;2023-12-20T07:36:30;8.77;;;5.87;;
1380;SDS011;684;48.342;10.096;2023-12-20T07:38:57;12.00;;;6.30;;
1380;SDS011;684;48.342;10.096;2023-12-20T07:41:23;8.67;;;5.90;;
1380;SDS011;684;48.342;10.096;2023-12-20T07:43:50;9.40;;;6.27;;
1380;SDS011;684;48.342;10.096;2023-12-20T07:46:18;10.00;;;6.20;;
1380;SDS011;684;48.342;10.096;2023-12-20T07:48:50;10.20;;;6.93;;
1380;SDS011;684;48.342;10.096;2023-12-20T07:51:16;8.67;;;6.30;;
1380;SDS011;684;48.342;10.096;2023-12-20T07:53:44;10.50;;;7.47;;
1380;SDS011;684;48.342;10.096;2023-12-20T07:56:14;11.07;;;6.90;;
1380;SDS011;684;48.342;10.096;2023-12-20T07:58:41;8.90;;;5.80;;
1380;SDS011;684;48.342;10.096;2023-12-20T08:01:08;10.80;;;7.03;;
1380;SDS011;684;48.342;10.096;2023-12-20T08:03:35;6.87;;;5.03;;
1380;SDS011;684;48.342;10.096;2023-12-20T08:06:03;9.00;;;5.57;;
1380;SDS011;684;48.342;10.096;2023-12-20T08:08:30;10.10;;;6.03;;
1380;SDS011;684;48.342;10.096;2023-12-20T08:10:57;8.83;;;6.53;;
1380;SDS011;684;48.342;10.096;2023-12-20T08:13:25;11.87;;;6.67;;
1380;SDS011;684;48.342;10.096;2023-12-20T08:15:52;9.90;;;7.20;;
1380;SDS011;684;48.342;10.096;2023-12-20T08:18:19;8.83;;;6.07;;
1380;SDS011;684;48.342;10.096;2023-12-20T08:20:45;9.37;;;6.20;;
1380;SDS011;684;48.342;10.096;2023-12-20T08:23:14;8.90;;;5.80;;
1380;SDS011;684;48.342;10.096;2023-12-20T08:25:41;8.07;;;5.80;;
1380;SDS011;684;48.342;10.096;2023-12-20T08:28:08;9.30;;;5.03;;
1380;SDS011;684;48.342;10.096;2023-12-20T08:30:35;13.00;;;8.20;;
1380;SDS011;684;48.342;10.096;2023-12-20T08:33:01;9.00;;;6.80;;
1380;SDS011;684;48.342;10.096;2023-12-20T08:35:28;9.93;;;6.70;;
1380;SDS011;684;48.342;10.096;2023-12-20T08:37:55;11.10;;;7.40;;
1380;SDS011;684;48.342;10.096;2023-12-20T08:40:24;10.00;;;6.17;;
1380;SDS011;684;48.342;10.096;2023-12-20T08:42:50;8.40;;;6.00;;
1380;SDS011;684;48.342;10.096;2023-12-20T08:45:17;10.33;;;6.97;;
1380;SDS011;684;48.342;10.096;2023-12-20T08:47:44;12.63;;;8.93;;
1380;SDS011;684;48.342;10.096;2023-12-20T08:50:10;8.90;;;7.00;;
1380;SDS011;684;48.342;10.096;2023-12-20T08:52:38;10.03;;;7.03;;
1380;SDS011;684;48.342;10.096;2023-12-20T08:55:05;9.80;;;8.30;;
1380;SDS011;684;48.342;10.096;2023-12-20T08:57:34;8.60;;;5.60;;
1380;SDS011;684;48.342;10.096;2023-12-20T09:00:00;9.67;;;6.20;;
1380;SDS011;684;48.342;10.096;2023-12-20T09:02:28;8.30;;;5.70;;
1380;SDS011;684;48.342;10.096;2023-12-20T09:04:54;7.47;;;5.40;;
1380;SDS011;684;48.342;10.096;2023-12-20T09:07:22;7.90;;;4.50;;
1380;SDS011;684;48.342;10.096;2023-12-20T09:09:49;7.60;;;4.70;;
1380;SDS011;684;48.342;10.096;2023-12-20T09:12:16;9.60;;;6.53;;
1380;SDS011;684;48.342;10.096;2023-12-20T09:14:45;8.90;;;5.77;;
1380;SDS011;684;48.342;10.096;2023-12-20T09:17:11;6.60;;;4.63;;
1380;SDS011;684;48.342;10.096;2023-12-20T09:19:38;7.80;;;5.57;;
1380;SDS011;684;48.342;10.096;2023-12-20T09:22:05;7.27;;;5.03;;
1380;SDS011;684;48.342;10.096;2023-12-20T09:24:32;7.53;;;5.10;;
1380;SDS011;684;48.342;10.096;2023-12-20T09:26:59;6.87;;;4.70;;
1380;SDS011;684;48.342;10.096;2023-12-20T09:29:26;7.10;;;4.60;;
1380;SDS011;684;48.342;10.096;2023-12-20T09:31:54;7.00;;;3.73;;
1380;SDS011;684;48.342;10.096;2023-12-20T09:34:22;7.10;;;4.87;;
1380;SDS011;684;48.342;10.096;2023-12-20T09:36:49;7.90;;;5.20;;
1380;SDS011;684;48.342;10.096;2023-12-20T09:39:16;8.30;;;5.23;;
1380;SDS011;684;48.342;10.096;2023-12-20T09:41:45;5.67;;;4.17;;
1380;SDS011;684;48.342;10.096;2023-12-20T09:44:18;6.97;;;4.33;;
1380;SDS011;684;48.342;10.096;2023-12-20T09:46:45;6.80;;;4.00;;
1380;SDS011;684;48.342;10.096;2023-12-20T09:49:17;6.33;;;3.60;;
1380;SDS011;684;48.342;10.096;2023-12-20T09:51:45;6.50;;;3.97;;
1380;SDS011;684;48.342;10.096;2023-12-20T09:54:13;8.20;;;5.27;;
1380;SDS011;684;48.342;10.096;2023-12-20T09:56:41;6.77;;;4.67;;
1380;SDS011;684;48.342;10.096;2023-12-20T09:59:08;5.80;;;4.10;;
1380;SDS011;684;48.342;10.096;2023-12-20T10:01:35;5.80;;;4.10;;
1380;SDS011;684;48.342;10.096;2023-12-20T10:04:05;8.07;;;4.17;;
1380;SDS011;684;48.342;10.096;2023-12-20T10:06:35;6.43;;;4.00;;
1380;SDS011;684;48.342;10.096;2023-12-20T10:09:02;6.50;;;3.93;;
1380;SDS011;684;48.342;10.096;2023-12-20T10:11:30;6.60;;;4.20;;
1380;SDS011;684;48.342;10.096;2023-12-20T10:13:58;5.43;;;3.40;;
1380;SDS011;684;48.342;10.096;2023-12-20T10:16:27;6.40;;;3.90;;
1380;SDS011;684;48.342;10.096;2023-12-20T10:18:54;9.00;;;3.80;;
1380;SDS011;684;48.342;10.096;2023-12-20T10:21:21;5.50;;;3.27;;
1380;SDS011;684;48.342;10.096;2023-12-20T10:23:50;6.67;;;4.13;;
1380;SDS011;684;48.342;10.096;2023-12-20T10:26:20;5.40;;;3.37;;
1380;SDS011;684;48.342;10.096;2023-12-20T10:28:49;5.57;;;3.37;;
1380;SDS011;684;48.342;10.096;2023-12-20T10:31:25;5.80;;;3.33;;
1380;SDS011;684;48.342;10.096;2023-12-20T10:33:53;7.13;;;4.30;;
1380;SDS011;684;48.342;10.096;2023-12-20T10:36:22;5.30;;;2.90;;
1380;SDS011;684;48.342;10.096;2023-12-20T10:38:53;7.00;;;4.50;;
1380;SDS011;684;48.342;10.096;2023-12-20T10:41:21;5.20;;;3.40;;
1380;SDS011;684;48.342;10.096;2023-12-20T10:43:52;6.03;;;3.90;;
1380;SDS011;684;48.342;10.096;2023-12-20T10:46:19;4.30;;;2.23;;
1380;SDS011;684;48.342;10.096;2023-12-20T10:48:46;3.93;;;1.53;;
1380;SDS011;684;48.342;10.096;2023-12-20T10:51:14;3.47;;;1.27;;
1380;SDS011;684;48.342;10.096;2023-12-20T10:53:44;3.20;;;1.00;;
1380;SDS011;684;48.342;10.096;2023-12-20T10:56:15;3.30;;;1.20;;
1380;SDS011;684;48.342;10.096;2023-12-20T10:58:43;3.20;;;0.90;;
1380;SDS011;684;48.342;10.096;2023-12-20T11:01:12;3.43;;;0.87;;
1380;SDS011;684;48.342;10.096;2023-12-20T11:03:40;3.10;;;0.80;;
1380;SDS011;684;48.342;10.096;2023-12-20T11:06:12;3.07;;;0.80;;
1380;SDS011;684;48.342;10.096;2023-12-20T11:08:47;3.60;;;1.17;;
1380;SDS011;684;48.342;10.096;2023-12-20T11:11:20;3.10;;;0.80;;
1380;SDS011;684;48.342;10.096;2023-12-20T11:13:53;3.33;;;0.93;;
1380;SDS011;684;48.342;10.096;2023-12-20T11:16:24;6.30;;;1.10;;
1380;SDS011;684;48.342;10.096;2023-12-20T11:18:51;3.87;;;0.97;;
1380;SDS011;684;48.342;10.096;2023-12-20T11:21:18;4.33;;;1.30;;
1380;SDS011;684;48.342;10.096;2023-12-20T11:23:45;4.50;;;1.43;;
1380;SDS011;684;48.342;10.096;2023-12-20T11:26:12;3.70;;;1.10;;
1380;SDS011;684;48.342;10.096;2023-12-20T11:28:43;6.27;;;1.20;;
1380;SDS011;684;48.342;10.096;2023-12-20T11:31:10;4.87;;;1.37;;
1380;SDS011;684;48.342;10.096;2023-12-20T11:33:40;3.50;;;1.20;;
1380;SDS011;684;48.342;10.096;2023-12-20T11:36:12;4.53;;;1.27;;
1380;SDS011;684;48.342;10.096;2023-12-20T11:38:45;3.73;;;1.23;;
1380;SDS011;684;48.342;10.096;2023-12-20T11:41:20;5.37;;;1.40;;
1380;SDS011;684;48.342;10.096;2023-12-20T11:43:51;3.30;;;1.10;;
1380;SDS011;684;48.342;10.096;2023-12-20T11:46:19;3.33;;;1.13;;
1380;SDS011;684;48.342;10.096;2023-12-20T11:48:47;3.80;;;1.43;;
1380;SDS011;684;48.342;10.096;2023-12-20T11:51:14;3.43;;;1.23;;
1380;SDS011;684;48.342;10.096;2023-12-20T11:53:41;4.10;;;1.17;;
1380;SDS011;684;48.342;10.096;2023-12-20T11:56:08;4.00;;;1.03;;
1380;SDS011;684;48.342;10.096;2023-12-20T11:58:35;4.63;;;1.10;;
1380;SDS011;684;48.342;10.096;2023-12-20T12:01:04;4.77;;;1.20;;
1380;SDS011;684;48.342;10.096;2023-12-20T12:03:32;4.23;;;1.30;;
1380;SDS011;684;48.342;10.096;2023-12-20T12:05:59;3.80;;;1.00;;
1380;SDS011;684;48.342;10.096;2023-12-20T12:08:27;4.27;;;1.10;;
1380;SDS011;684;48.342;10.096;2023-12-20T12:10:54;4.23;;;1.10;;
1380;SDS011;684;48.342;10.096;2023-12-20T12:13:20;4.77;;;1.23;;
1380;SDS011;684;48.342;10.096;2023-12-20T12:15:47;5.63;;;1.30;;
1380;SDS011;684;48.342;10.096;2023-12-20T12:18:16;3.97;;;1.10;;
1380;SDS011;684;48.342;10.096;2023-12-20T12:20:44;7.60;;;1.03;;
1380;SDS011;684;48.342;10.096;2023-12-20T12:23:10;5.10;;;1.70;;
1380;SDS011;684;48.342;10.096;2023-12-20T12:25:37;3.53;;;1.00;;
1380;SDS011;684;48.342;10.096;2023-12-20T12:28:04;4.10;;;1.23;;
1380;SDS011;684;48.342;10.096;2023-12-20T12:30:32;5.10;;;1.40;;
1380;SDS011;684;48.342;10.096;2023-12-20T12:32:58;4.20;;;1.80;;
1380;SDS011;684;48.342;10.096;2023-12-20T12:35:27;3.70;;;1.03;;
1380;SDS011;684;48.342;10.096;2023-12-20T12:37:54;4.37;;;1.33;;
1380;SDS011;684;48.342;10.096;2023-12-20T12:40:20;5.03;;;1.20;;
1380;SDS011;684;48.342;10.096;2023-12-20T12:42:47;4.40;;;1.50;;
1380;SDS011;684;48.342;10.096;2023-12-20T12:45:14;6.17;;;1.53;;
1380;SDS011;684;48.342;10.096;2023-12-20T12:47:40;4.00;;;0.90;;
1380;SDS011;684;48.342;10.096;2023-12-20T12:50:08;6.10;;;1.40;;
1380;SDS011;684;48.342;10.096;2023-12-20T12:52:36;3.77;;;1.27;;
1380;SDS011;684;48.342;10.096;2023-12-20T12:55:03;3.80;;;1.20;;
1380;SDS011;684;48.342;10.096;2023-12-20T12:57:32;4.20;;;2.03;;
1380;SDS011;684;48.342;10.096;2023-12-20T12:59:59;3.83;;;1.40;;
1380;SDS011;684;48.342;10.096;2023-12-20T13:02:27;6.60;;;1.40;;
1380;SDS011;684;48.342;10.096;2023-12-20T13:04:54;4.10;;;1.30;;
1380;SDS011;684;48.342;10.096;2023-12-20T13:07:21;4.97;;;1.30;;
1380;SDS011;684;48.342;10.096;2023-12-20T13:09:49;3.73;;;1.40;;
1380;SDS011;684;48.342;10.096;2023-12-20T13:12:16;3.80;;;1.40;;
1380;SDS011;684;48.342;10.096;2023-12-20T13:14:43;4.00;;;1.00;;
1380;SDS011;684;48.342;10.096;2023-12-20T13:17:10;3.60;;;1.70;;
1380;SDS011;684;48.342;10.096;2023-12-20T13:19:37;3.73;;;1.33;;
1380;SDS011;684;48.342;10.096;2023-12-20T13:22:03;4.03;;;1.80;;
1380;SDS011;684;48.342;10.096;2023-12-20T13:24:30;3.67;;;1.63;;
1380;SDS011;684;48.342;10.096;2023-12-20T13:26:58;9.50;;;1.60;;
1380;SDS011;684;48.342;10.096;2023-12-20T13:29:25;5.00;;;1.80;;
1380;SDS011;684;48.342;10.096;2023-12-20T13:31:52;4.33;;;1.27;;
1380;SDS011;684;48.342;10.096;2023-12-20T13:34:19;5.17;;;1.80;;
1380;SDS011;684;48.342;10.096;2023-12-20T13:36:46;3.37;;;1.13;;
1380;SDS011;684;48.342;10.096;2023-12-20T13:39:15;3.80;;;1.40;;
1380;SDS011;684;48.342;10.096;2023-12-20T13:41:43;7.50;;;1.83;;
1380;SDS011;684;48.342;10.096;2023-12-20T13:44:11;3.97;;;1.50;;
1380;SDS011;684;48.342;10.096;2023-12-20T13:46:38;4.13;;;1.60;;
1380;SDS011;684;48.342;10.096;2023-12-20T13:49:04;4.37;;;1.70;;
1380;SDS011;684;48.342;10.096;2023-12-20T13:51:31;6.13;;;1.63;;
1380;SDS011;684;48.342;10.096;2023-12-20T13:53:58;5.23;;;1.77;;
1380;SDS011;684;48.342;10.096;2023-12-20T13:56:25;5.60;;;2.10;;
1380;SDS011;684;48.342;10.096;2023-12-20T13:58:51;13.50;;;2.30;;
1380;SDS011;684;48.342;10.096;2023-12-20T14:01:19;4.13;;;1.50;;
1380;SDS011;684;48.342;10.096;2023-12-20T14:03:46;7.20;;;1.67;;
1380;SDS011;684;48.342;10.096;2023-12-20T14:06:13;4.30;;;1.70;;
1380;SDS011;684;48.342;10.096;2023-12-20T14:08:40;4.83;;;1.97;;
1380;SDS011;684;48.342;10.096;2023-12-20T14:11:07;4.23;;;1.70;;
1380;SDS011;684;48.342;10.096;2023-12-20T14:13:34;5.10;;;1.37;;
1380;SDS011;684;48.342;10.096;2023-12-20T14:16:01;5.13;;;1.70;;
1380;SDS011;684;48.342;10.096;2023-12-20T14:18:30;6.20;;;1.40;;
1380;SDS011;684;48.342;10.096;2023-12-20T14:20:57;4.63;;;1.43;;
1380;SDS011;684;48.342;10.096;2023-12-20T14:23:23;5.90;;;1.60;;
1380;SDS011;684;48.342;10.096;2023-12-20T14:25:50;5.20;;;1.30;;
1380;SDS011;684;48.342;10.096;2023-12-20T14:28:17;4.10;;;1.27;;
1380;SDS011;684;48.342;10.096;2023-12-20T14:30:44;4.67;;;1.47;;
1380;SDS011;684;48.342;10.096;2023-12-20T14:33:10;3.90;;;1.30;;
1380;SDS011;684;48.342;10.096;2023-12-20T14:35:38;6.60;;;1.87;;
1380;SDS011;684;48.342;10.096;2023-12-20T14:38:07;6.67;;;1.43;;
1380;SDS011;684;48.342;10.096;2023-12-20T14:40:34;4.93;;;1.20;;
1380;SDS011;684;48.342;10.096;2023-12-20T14:43:00;7.50;;;1.70;;
1380;SDS011;684;48.342;10.096;2023-12-20T14:45:29;6.97;;;2.03;;
1380;SDS011;684;48.342;10.096;2023-12-20T14:47:55;3.60;;;1.40;;
1380;SDS011;684;48.342;10.096;2023-12-20T14:50:23;4.77;;;1.47;;
1380;SDS011;684;48.342;10.096;2023-12-20T14:52:52;5.20;;;1.73;;
1380;SDS011;684;48.342;10.096;2023-12-20T14:55:20;4.30;;;1.50;;
1380;SDS011;684;48.342;10.096;2023-12-20T14:57:46;5.37;;;2.30;;
1380;SDS011;684;48.342;10.096;2023-12-20T15:00:14;5.33;;;1.50;;
1380;SDS011;684;48.342;10.096;2023-12-20T15:02:42;5.53;;;2.43;;
1380;SDS011;684;48.342;10.096;2023-12-20T15:05:08;11.97;;;3.50;;
1380;SDS011;684;48.342;10.096;2023-12-20T15:07:35;5.53;;;2.47;;
1380;SDS011;684;48.342;10.096;2023-12-20T15:10:04;7.23;;;2.43;;
1380;SDS011;684;48.342;10.096;2023-12-20T15:12:31;20.53;;;11.40;;
1380;SDS011;684;48.342;10.096;2023-12-20T15:14:59;5.37;;;2.57;;